sensor_id;sensor_type;location;lat;lon;timestamp;P1;durP1;ratioP1;P2;durP2;ratioP2
14408;SDS011;7289;50.706;4.992;2023-06-04T00:01:22;0.10;;;0.10;;
14408;SDS011;7289;50.706;4.992;2023-06-04T00:03:51;0.10;;;0.10;;
14408;SDS011;7289;50.706;4.992;2023-06-04T00:06:20;0.10;;;0.10;;
14408;SDS011;7289;50.706;4.992;2023-06-04T00:08:49;0.10;;;0.10;;
14408;SDS011;7289;50.706;4.992;2023-06-04T00:11:17;0.10;;;0.10;;
14408;SDS011;7289;50.706;4.992;2023-06-04T00:13:46;0.10;;;0.10;;
14408;SDS011;7289;50.706;4.992;2023-06-04T00:16:14;0.10;;;0.10;;
14408;SDS011;7289;50.706;4.992;2023-06-04T00:18:43;0.10;;;0.10;;
14408;SDS011;7289;50.706;4.992;2023-06-04T00:21:12;0.10;;;0.10;;
14408;SDS011;7289;50.706;4.992;2023-06-04T00:23:40;0.10;;;0.10;;
14408;SDS011;7289;50.706;4.992;2023-06-04T00:26:09;0.10;;;0.10;;
14408;SDS011;7289;50.706;4.992;2023-06-04T00:28:42;0.10;;;0.10;;
14408;SDS011;7289;50.706;4.992;2023-06-04T00:31:10;0.10;;;0.10;;
14408;SDS011;7289;50.706;4.992;2023-06-04T00:33:39;0.10;;;0.10;;
14408;SDS011;7289;50.706;4.992;2023-06-04T00:36:07;0.10;;;0.10;;
14408;SDS011;7289;50.706;4.992;2023-06-04T00:38:37;0.10;;;0.10;;
14408;SDS011;7289;50.706;4.992;2023-06-04T00:41:05;0.10;;;0.10;;
14408;SDS011;7289;50.706;4.992;2023-06-04T00:43:34;0.10;;;0.10;;
14408;SDS011;7289;50.706;4.992;2023-06-04T00:46:03;0.10;;;0.10;;
14408;SDS011;7289;50.706;4.992;2023-06-04T00:48:33;0.10;;;0.10;;
14408;SDS011;7289;50.706;4.992;2023-06-04T00:51:03;0.10;;;0.10;;
14408;SDS011;7289;50.706;4.992;2023-06-04T00:53:32;0.10;;;0.10;;
14408;SDS011;7289;50.706;4.992;2023-06-04T00:56:02;0.10;;;0.10;;
14408;SDS011;7289;50.706;4.992;2023-06-04T00:58:33;0.10;;;0.10;;
14408;SDS011;7289;50.706;4.992;2023-06-04T01:01:06;0.10;;;0.10;;
14408;SDS011;7289;50.706;4.992;2023-06-04T01:03:41;0.10;;;0.10;;
14408;SDS011;7289;50.706;4.992;2023-06-04T01:06:13;0.10;;;0.10;;
14408;SDS011;7289;50.706;4.992;2023-06-04T01:08:49;0.10;;;0.10;;
14408;SDS011;7289;50.706;4.992;2023-06-04T01:11:31;0.10;;;0.10;;
14408;SDS011;7289;50.706;4.992;2023-06-04T01:14:01;0.10;;;0.10;;
14408;SDS011;7289;50.706;4.992;2023-06-04T01:16:33;0.10;;;0.10;;
14408;SDS011;7289;50.706;4.992;2023-06-04T01:19:08;0.10;;;0.10;;
14408;SDS011;7289;50.706;4.992;2023-06-04T01:21:51;0.10;;;0.10;;
14408;SDS011;7289;50.706;4.992;2023-06-04T01:24:22;0.10;;;0.10;;
14408;SDS011;7289;50.706;4.992;2023-06-04T01:26:56;0.10;;;0.10;;
14408;SDS011;7289;50.706;4.992;2023-06-04T01:29:25;0.13;;;0.13;;
14408;SDS011;7289;50.706;4.992;2023-06-04T01:31:56;0.10;;;0.10;;
14408;SDS011;7289;50.706;4.992;2023-06-04T01:34:26;0.10;;;0.10;;
14408;SDS011;7289;50.706;4.992;2023-06-04T01:36:54;0.10;;;0.10;;
14408;SDS011;7289;50.706;4.992;2023-06-04T01:39:22;0.20;;;0.20;;
14408;SDS011;7289;50.706;4.992;2023-06-04T01:41:51;0.10;;;0.10;;
14408;SDS011;7289;50.706;4.992;2023-06-04T01:44:20;0.13;;;0.13;;
14408;SDS011;7289;50.706;4.992;2023-06-04T01:46:48;0.10;;;0.10;;
14408;SDS011;7289;50.706;4.992;2023-06-04T01:49:17;0.10;;;0.10;;
14408;SDS011;7289;50.706;4.992;2023-06-04T01:51:45;0.10;;;0.10;;
14408;SDS011;7289;50.706;4.992;2023-06-04T01:54:13;0.10;;;0.10;;
14408;SDS011;7289;50.706;4.992;2023-06-04T01:56:42;0.10;;;0.10;;
14408;SDS011;7289;50.706;4.992;2023-06-04T01:59:11;0.20;;;0.20;;
14408;SDS011;7289;50.706;4.992;2023-06-04T02:01:44;0.10;;;0.10;;
14408;SDS011;7289;50.706;4.992;2023-06-04T02:04:12;0.10;;;0.10;;
14408;SDS011;7289;50.706;4.992;2023-06-04T02:06:40;0.10;;;0.10;;
14408;SDS011;7289;50.706;4.992;2023-06-04T02:09:09;0.10;;;0.10;;
14408;SDS011;7289;50.706;4.992;2023-06-04T02:11:37;0.10;;;0.10;;
14408;SDS011;7289;50.706;4.992;2023-06-04T02:14:05;0.10;;;0.10;;
14408;SDS011;7289;50.706;4.992;2023-06-04T02:16:34;0.10;;;0.10;;
14408;SDS011;7289;50.706;4.992;2023-06-04T02:19:04;0.20;;;0.20;;
14408;SDS011;7289;50.706;4.992;2023-06-04T02:21:32;0.10;;;0.10;;
14408;SDS011;7289;50.706;4.992;2023-06-04T02:24:01;0.20;;;0.20;;
14408;SDS011;7289;50.706;4.992;2023-06-04T02:26:30;0.10;;;0.10;;
14408;SDS011;7289;50.706;4.992;2023-06-04T02:28:58;0.20;;;0.20;;
14408;SDS011;7289;50.706;4.992;2023-06-04T02:31:27;0.10;;;0.10;;
14408;SDS011;7289;50.706;4.992;2023-06-04T02:33:55;0.17;;;0.17;;
14408;SDS011;7289;50.706;4.992;2023-06-04T02:36:25;0.20;;;0.20;;
14408;SDS011;7289;50.706;4.992;2023-06-04T02:38:53;0.17;;;0.17;;
14408;SDS011;7289;50.706;4.992;2023-06-04T02:41:22;0.20;;;0.20;;
14408;SDS011;7289;50.706;4.992;2023-06-04T02:43:51;0.20;;;0.20;;
14408;SDS011;7289;50.706;4.992;2023-06-04T02:46:20;0.20;;;0.20;;
14408;SDS011;7289;50.706;4.992;2023-06-04T02:48:48;0.20;;;0.20;;
14408;SDS011;7289;50.706;4.992;2023-06-04T02:51:16;0.10;;;0.10;;
14408;SDS011;7289;50.706;4.992;2023-06-04T02:53:46;0.20;;;0.20;;
14408;SDS011;7289;50.706;4.992;2023-06-04T02:56:14;0.20;;;0.20;;
14408;SDS011;7289;50.706;4.992;2023-06-04T02:58:50;0.13;;;0.13;;
14408;SDS011;7289;50.706;4.992;2023-06-04T03:01:19;0.20;;;0.20;;
14408;SDS011;7289;50.706;4.992;2023-06-04T03:03:47;0.20;;;0.20;;
14408;SDS011;7289;50.706;4.992;2023-06-04T03:06:16;0.20;;;0.20;;
14408;SDS011;7289;50.706;4.992;2023-06-04T03:08:48;0.20;;;0.20;;
14408;SDS011;7289;50.706;4.992;2023-06-04T03:11:17;0.10;;;0.10;;
14408;SDS011;7289;50.706;4.992;2023-06-04T03:13:47;0.20;;;0.20;;
14408;SDS011;7289;50.706;4.992;2023-06-04T03:16:16;0.17;;;0.17;;
14408;SDS011;7289;50.706;4.992;2023-06-04T03:18:44;0.20;;;0.20;;
14408;SDS011;7289;50.706;4.992;2023-06-04T03:21:12;0.10;;;0.10;;
14408;SDS011;7289;50.706;4.992;2023-06-04T03:23:41;0.20;;;0.20;;
14408;SDS011;7289;50.706;4.992;2023-06-04T03:26:12;0.17;;;0.17;;
14408;SDS011;7289;50.706;4.992;2023-06-04T03:28:40;0.20;;;0.20;;
14408;SDS011;7289;50.706;4.992;2023-06-04T03:31:12;0.20;;;0.20;;
14408;SDS011;7289;50.706;4.992;2023-06-04T03:33:41;0.20;;;0.20;;
14408;SDS011;7289;50.706;4.992;2023-06-04T03:36:10;0.20;;;0.20;;
14408;SDS011;7289;50.706;4.992;2023-06-04T03:38:38;0.20;;;0.20;;
14408;SDS011;7289;50.706;4.992;2023-06-04T03:41:07;0.20;;;0.20;;
14408;SDS011;7289;50.706;4.992;2023-06-04T03:43:37;0.20;;;0.20;;
14408;SDS011;7289;50.706;4.992;2023-06-04T03:46:08;0.10;;;0.10;;
14408;SDS011;7289;50.706;4.992;2023-06-04T03:48:37;0.20;;;0.20;;
14408;SDS011;7289;50.706;4.992;2023-06-04T03:51:05;0.20;;;0.20;;
14408;SDS011;7289;50.706;4.992;2023-06-04T03:53:34;0.20;;;0.20;;
14408;SDS011;7289;50.706;4.992;2023-06-04T03:56:03;0.20;;;0.20;;
14408;SDS011;7289;50.706;4.992;2023-06-04T03:58:32;0.20;;;0.20;;
14408;SDS011;7289;50.706;4.992;2023-06-04T04:01:04;0.20;;;0.20;;
14408;SDS011;7289;50.706;4.992;2023-06-04T04:03:33;0.20;;;0.20;;
14408;SDS011;7289;50.706;4.992;2023-06-04T04:06:03;0.17;;;0.17;;
14408;SDS011;7289;50.706;4.992;2023-06-04T04:08:32;0.20;;;0.20;;
14408;SDS011;7289;50.706;4.992;2023-06-04T04:11:00;0.20;;;0.20;;
14408;SDS011;7289;50.706;4.992;2023-06-04T04:13:29;0.20;;;0.20;;
14408;SDS011;7289;50.706;4.992;2023-06-04T04:15:58;0.20;;;0.20;;
14408;SDS011;7289;50.706;4.992;2023-06-04T04:18:27;0.20;;;0.20;;
14408;SDS011;7289;50.706;4.992;2023-06-04T04:20:59;0.20;;;0.20;;
14408;SDS011;7289;50.706;4.992;2023-06-04T04:23:28;0.20;;;0.20;;
14408;SDS011;7289;50.706;4.992;2023-06-04T04:25:58;0.20;;;0.20;;
14408;SDS011;7289;50.706;4.992;2023-06-04T04:28:30;0.20;;;0.20;;
14408;SDS011;7289;50.706;4.992;2023-06-04T04:31:00;0.13;;;0.13;;
14408;SDS011;7289;50.706;4.992;2023-06-04T04:33:35;0.20;;;0.20;;
14408;SDS011;7289;50.706;4.992;2023-06-04T04:36:09;0.10;;;0.10;;
14408;SDS011;7289;50.706;4.992;2023-06-04T04:38:45;0.20;;;0.20;;
14408;SDS011;7289;50.706;4.992;2023-06-04T04:41:26;0.20;;;0.20;;
14408;SDS011;7289;50.706;4.992;2023-06-04T04:44:02;0.20;;;0.20;;
14408;SDS011;7289;50.706;4.992;2023-06-04T04:46:31;0.20;;;0.20;;
14408;SDS011;7289;50.706;4.992;2023-06-04T04:49:01;0.10;;;0.10;;
14408;SDS011;7289;50.706;4.992;2023-06-04T04:51:29;0.10;;;0.10;;
14408;SDS011;7289;50.706;4.992;2023-06-04T04:53:58;0.10;;;0.10;;
14408;SDS011;7289;50.706;4.992;2023-06-04T04:56:33;0.10;;;0.10;;
14408;SDS011;7289;50.706;4.992;2023-06-04T04:59:04;0.20;;;0.20;;
14408;SDS011;7289;50.706;4.992;2023-06-04T05:01:32;0.10;;;0.10;;
14408;SDS011;7289;50.706;4.992;2023-06-04T05:04:04;0.20;;;0.20;;
14408;SDS011;7289;50.706;4.992;2023-06-04T05:06:36;0.10;;;0.10;;
14408;SDS011;7289;50.706;4.992;2023-06-04T05:09:06;0.20;;;0.20;;
14408;SDS011;7289;50.706;4.992;2023-06-04T05:11:35;0.10;;;0.10;;
14408;SDS011;7289;50.706;4.992;2023-06-04T05:14:04;0.10;;;0.10;;
14408;SDS011;7289;50.706;4.992;2023-06-04T05:16:34;0.10;;;0.10;;
14408;SDS011;7289;50.706;4.992;2023-06-04T05:19:10;0.10;;;0.10;;
14408;SDS011;7289;50.706;4.992;2023-06-04T05:21:40;0.10;;;0.10;;
14408;SDS011;7289;50.706;4.992;2023-06-04T05:24:10;0.10;;;0.10;;
14408;SDS011;7289;50.706;4.992;2023-06-04T05:26:38;0.10;;;0.10;;
14408;SDS011;7289;50.706;4.992;2023-06-04T05:29:13;0.10;;;0.10;;
14408;SDS011;7289;50.706;4.992;2023-06-04T05:31:44;0.10;;;0.10;;
14408;SDS011;7289;50.706;4.992;2023-06-04T05:34:16;0.10;;;0.10;;
14408;SDS011;7289;50.706;4.992;2023-06-04T05:36:46;0.10;;;0.10;;
14408;SDS011;7289;50.706;4.992;2023-06-04T05:39:16;0.10;;;0.10;;
14408;SDS011;7289;50.706;4.992;2023-06-04T05:42:00;0.10;;;0.10;;
14408;SDS011;7289;50.706;4.992;2023-06-04T05:44:28;0.10;;;0.10;;
14408;SDS011;7289;50.706;4.992;2023-06-04T05:46:57;0.10;;;0.10;;
14408;SDS011;7289;50.706;4.992;2023-06-04T05:49:27;0.10;;;0.10;;
14408;SDS011;7289;50.706;4.992;2023-06-04T05:51:58;0.10;;;0.10;;
14408;SDS011;7289;50.706;4.992;2023-06-04T05:54:26;0.10;;;0.10;;
14408;SDS011;7289;50.706;4.992;2023-06-04T05:56:56;0.10;;;0.10;;
14408;SDS011;7289;50.706;4.992;2023-06-04T05:59:25;0.10;;;0.10;;
14408;SDS011;7289;50.706;4.992;2023-06-04T06:01:53;0.10;;;0.10;;
14408;SDS011;7289;50.706;4.992;2023-06-04T06:04:22;0.10;;;0.10;;
14408;SDS011;7289;50.706;4.992;2023-06-04T06:06:52;0.10;;;0.10;;
14408;SDS011;7289;50.706;4.992;2023-06-04T06:09:20;0.10;;;0.10;;
14408;SDS011;7289;50.706;4.992;2023-06-04T06:11:48;0.10;;;0.10;;
14408;SDS011;7289;50.706;4.992;2023-06-04T06:14:17;0.10;;;0.10;;
14408;SDS011;7289;50.706;4.992;2023-06-04T06:16:46;0.10;;;0.10;;
14408;SDS011;7289;50.706;4.992;2023-06-04T06:19:14;0.10;;;0.10;;
14408;SDS011;7289;50.706;4.992;2023-06-04T06:21:43;0.10;;;0.10;;
14408;SDS011;7289;50.706;4.992;2023-06-04T06:24:14;0.10;;;0.10;;
14408;SDS011;7289;50.706;4.992;2023-06-04T06:26:42;0.10;;;0.10;;
14408;SDS011;7289;50.706;4.992;2023-06-04T06:29:13;0.10;;;0.10;;
14408;SDS011;7289;50.706;4.992;2023-06-04T06:31:42;0.10;;;0.10;;
14408;SDS011;7289;50.706;4.992;2023-06-04T06:34:10;0.10;;;0.10;;
14408;SDS011;7289;50.706;4.992;2023-06-04T06:36:39;0.10;;;0.10;;
14408;SDS011;7289;50.706;4.992;2023-06-04T06:39:07;0.00;;;0.00;;
14408;SDS011;7289;50.706;4.992;2023-06-04T06:41:38;0.05;;;0.05;;
14408;SDS011;7289;50.706;4.992;2023-06-04T06:44:10;0.00;;;0.00;;
14408;SDS011;7289;50.706;4.992;2023-06-04T06:46:38;0.00;;;0.00;;
14408;SDS011;7289;50.706;4.992;2023-06-04T06:49:07;0.03;;;0.03;;
14408;SDS011;7289;50.706;4.992;2023-06-04T06:51:35;0.10;;;0.10;;
14408;SDS011;7289;50.706;4.992;2023-06-04T06:54:04;0.00;;;0.00;;
14408;SDS011;7289;50.706;4.992;2023-06-04T06:56:32;0.03;;;0.03;;
14408;SDS011;7289;50.706;4.992;2023-06-04T06:59:01;0.00;;;0.00;;
14408;SDS011;7289;50.706;4.992;2023-06-04T07:01:30;0.00;;;0.00;;
14408;SDS011;7289;50.706;4.992;2023-06-04T07:03:59;0.00;;;0.00;;
14408;SDS011;7289;50.706;4.992;2023-06-04T07:06:27;0.00;;;0.00;;
14408;SDS011;7289;50.706;4.992;2023-06-04T07:08:55;0.10;;;0.10;;
14408;SDS011;7289;50.706;4.992;2023-06-04T07:11:23;0.10;;;0.10;;
14408;SDS011;7289;50.706;4.992;2023-06-04T07:13:52;0.10;;;0.10;;
14408;SDS011;7289;50.706;4.992;2023-06-04T07:16:22;0.00;;;0.00;;
14408;SDS011;7289;50.706;4.992;2023-06-04T07:18:51;0.10;;;0.10;;
14408;SDS011;7289;50.706;4.992;2023-06-04T07:21:19;0.00;;;0.00;;
14408;SDS011;7289;50.706;4.992;2023-06-04T07:23:50;0.00;;;0.00;;
14408;SDS011;7289;50.706;4.992;2023-06-04T07:26:18;0.00;;;0.00;;
14408;SDS011;7289;50.706;4.992;2023-06-04T07:28:47;0.00;;;0.00;;
14408;SDS011;7289;50.706;4.992;2023-06-04T07:31:15;0.03;;;0.03;;
14408;SDS011;7289;50.706;4.992;2023-06-04T07:33:45;0.00;;;0.00;;
14408;SDS011;7289;50.706;4.992;2023-06-04T07:36:14;0.00;;;0.00;;
14408;SDS011;7289;50.706;4.992;2023-06-04T07:38:42;0.00;;;0.00;;
14408;SDS011;7289;50.706;4.992;2023-06-04T07:41:11;0.00;;;0.00;;
14408;SDS011;7289;50.706;4.992;2023-06-04T07:43:39;0.00;;;0.00;;
14408;SDS011;7289;50.706;4.992;2023-06-04T07:46:07;0.00;;;0.00;;
14408;SDS011;7289;50.706;4.992;2023-06-04T07:48:37;0.00;;;0.00;;
14408;SDS011;7289;50.706;4.992;2023-06-04T07:51:07;0.00;;;0.00;;
14408;SDS011;7289;50.706;4.992;2023-06-04T07:53:35;0.00;;;0.00;;
14408;SDS011;7289;50.706;4.992;2023-06-04T07:56:05;0.00;;;0.00;;
14408;SDS011;7289;50.706;4.992;2023-06-04T07:58:33;0.00;;;0.00;;
14408;SDS011;7289;50.706;4.992;2023-06-04T08:01:02;0.00;;;0.00;;
14408;SDS011;7289;50.706;4.992;2023-06-04T08:03:30;0.00;;;0.00;;
14408;SDS011;7289;50.706;4.992;2023-06-04T08:05:59;0.00;;;0.00;;
14408;SDS011;7289;50.706;4.992;2023-06-04T08:08:31;0.00;;;0.00;;
14408;SDS011;7289;50.706;4.992;2023-06-04T08:11:00;0.10;;;0.10;;
14408;SDS011;7289;50.706;4.992;2023-06-04T08:13:29;0.00;;;0.00;;
14408;SDS011;7289;50.706;4.992;2023-06-04T08:15:57;0.10;;;0.10;;
14408;SDS011;7289;50.706;4.992;2023-06-04T08:18:45;0.00;;;0.00;;
14408;SDS011;7289;50.706;4.992;2023-06-04T08:21:29;0.10;;;0.10;;
14408;SDS011;7289;50.706;4.992;2023-06-04T08:24:08;0.00;;;0.00;;
14408;SDS011;7289;50.706;4.992;2023-06-04T08:26:56;0.00;;;0.00;;
14408;SDS011;7289;50.706;4.992;2023-06-04T08:29:31;0.00;;;0.00;;
14408;SDS011;7289;50.706;4.992;2023-06-04T08:32:19;0.00;;;0.00;;
14408;SDS011;7289;50.706;4.992;2023-06-04T08:34:49;0.00;;;0.00;;
14408;SDS011;7289;50.706;4.992;2023-06-04T08:37:18;0.00;;;0.00;;
14408;SDS011;7289;50.706;4.992;2023-06-04T08:39:47;0.03;;;0.03;;
14408;SDS011;7289;50.706;4.992;2023-06-04T08:42:18;0.00;;;0.00;;
14408;SDS011;7289;50.706;4.992;2023-06-04T08:44:50;0.00;;;0.00;;
14408;SDS011;7289;50.706;4.992;2023-06-04T08:47:20;0.00;;;0.00;;
14408;SDS011;7289;50.706;4.992;2023-06-04T08:49:52;0.00;;;0.00;;
14408;SDS011;7289;50.706;4.992;2023-06-04T08:52:22;0.00;;;0.00;;
14408;SDS011;7289;50.706;4.992;2023-06-04T08:54:53;0.00;;;0.00;;
14408;SDS011;7289;50.706;4.992;2023-06-04T08:57:23;0.00;;;0.00;;
14408;SDS011;7289;50.706;4.992;2023-06-04T08:59:51;0.00;;;0.00;;
14408;SDS011;7289;50.706;4.992;2023-06-04T09:02:20;0.00;;;0.00;;
14408;SDS011;7289;50.706;4.992;2023-06-04T09:04:49;0.00;;;0.00;;
14408;SDS011;7289;50.706;4.992;2023-06-04T09:07:17;0.00;;;0.00;;
14408;SDS011;7289;50.706;4.992;2023-06-04T09:09:46;0.00;;;0.00;;
14408;SDS011;7289;50.706;4.992;2023-06-04T09:12:37;0.10;;;0.10;;
14408;SDS011;7289;50.706;4.992;2023-06-04T09:15:10;0.00;;;0.00;;
14408;SDS011;7289;50.706;4.992;2023-06-04T09:17:39;0.00;;;0.00;;
14408;SDS011;7289;50.706;4.992;2023-06-04T09:20:07;0.00;;;0.00;;
14408;SDS011;7289;50.706;4.992;2023-06-04T09:22:45;0.00;;;0.00;;
14408;SDS011;7289;50.706;4.992;2023-06-04T09:25:18;0.00;;;0.00;;
14408;SDS011;7289;50.706;4.992;2023-06-04T09:27:49;0.00;;;0.00;;
14408;SDS011;7289;50.706;4.992;2023-06-04T09:30:18;0.00;;;0.00;;
14408;SDS011;7289;50.706;4.992;2023-06-04T09:32:46;0.00;;;0.00;;
14408;SDS011;7289;50.706;4.992;2023-06-04T09:35:15;0.00;;;0.00;;
14408;SDS011;7289;50.706;4.992;2023-06-04T09:37:51;0.00;;;0.00;;
14408;SDS011;7289;50.706;4.992;2023-06-04T09:40:20;0.00;;;0.00;;
14408;SDS011;7289;50.706;4.992;2023-06-04T09:42:51;0.00;;;0.00;;
14408;SDS011;7289;50.706;4.992;2023-06-04T09:45:28;0.03;;;0.03;;
14408;SDS011;7289;50.706;4.992;2023-06-04T09:47:58;0.00;;;0.00;;
14408;SDS011;7289;50.706;4.992;2023-06-04T09:50:27;0.00;;;0.00;;
14408;SDS011;7289;50.706;4.992;2023-06-04T09:52:58;0.00;;;0.00;;
14408;SDS011;7289;50.706;4.992;2023-06-04T09:55:28;0.10;;;0.10;;
14408;SDS011;7289;50.706;4.992;2023-06-04T09:57:58;0.00;;;0.00;;
14408;SDS011;7289;50.706;4.992;2023-06-04T10:00:27;0.00;;;0.00;;
14408;SDS011;7289;50.706;4.992;2023-06-04T10:02:56;0.00;;;0.00;;
14408;SDS011;7289;50.706;4.992;2023-06-04T10:05:26;0.00;;;0.00;;
14408;SDS011;7289;50.706;4.992;2023-06-04T10:07:59;0.00;;;0.00;;
14408;SDS011;7289;50.706;4.992;2023-06-04T10:10:31;0.00;;;0.00;;
14408;SDS011;7289;50.706;4.992;2023-06-04T10:13:05;0.00;;;0.00;;
14408;SDS011;7289;50.706;4.992;2023-06-04T10:15:43;0.00;;;0.00;;
14408;SDS011;7289;50.706;4.992;2023-06-04T10:18:12;0.00;;;0.00;;
14408;SDS011;7289;50.706;4.992;2023-06-04T10:20:42;0.00;;;0.00;;
14408;SDS011;7289;50.706;4.992;2023-06-04T10:23:10;0.00;;;0.00;;
14408;SDS011;7289;50.706;4.992;2023-06-04T10:25:38;0.00;;;0.00;;
14408;SDS011;7289;50.706;4.992;2023-06-04T10:28:08;0.00;;;0.00;;
14408;SDS011;7289;50.706;4.992;2023-06-04T10:30:37;0.00;;;0.00;;
14408;SDS011;7289;50.706;4.992;2023-06-04T10:33:05;0.00;;;0.00;;
14408;SDS011;7289;50.706;4.992;2023-06-04T10:35:34;0.00;;;0.00;;
14408;SDS011;7289;50.706;4.992;2023-06-04T10:38:04;0.00;;;0.00;;
14408;SDS011;7289;50.706;4.992;2023-06-04T10:40:34;0.00;;;0.00;;
14408;SDS011;7289;50.706;4.992;2023-06-04T10:43:05;0.00;;;0.00;;
14408;SDS011;7289;50.706;4.992;2023-06-04T10:45:36;0.03;;;0.03;;
14408;SDS011;7289;50.706;4.992;2023-06-04T10:48:05;0.00;;;0.00;;
14408;SDS011;7289;50.706;4.992;2023-06-04T10:50:35;0.00;;;0.00;;
14408;SDS011;7289;50.706;4.992;2023-06-04T10:53:15;0.00;;;0.00;;
14408;SDS011;7289;50.706;4.992;2023-06-04T10:55:44;0.00;;;0.00;;
14408;SDS011;7289;50.706;4.992;2023-06-04T10:58:13;0.00;;;0.00;;
14408;SDS011;7289;50.706;4.992;2023-06-04T11:00:43;0.10;;;0.10;;
14408;SDS011;7289;50.706;4.992;2023-06-04T11:03:15;0.10;;;0.10;;
14408;SDS011;7289;50.706;4.992;2023-06-04T11:05:45;0.00;;;0.00;;
14408;SDS011;7289;50.706;4.992;2023-06-04T11:08:14;0.10;;;0.10;;
14408;SDS011;7289;50.706;4.992;2023-06-04T11:10:53;0.10;;;0.10;;
14408;SDS011;7289;50.706;4.992;2023-06-04T11:13:22;0.08;;;0.08;;
14408;SDS011;7289;50.706;4.992;2023-06-04T11:15:52;0.00;;;0.00;;
14408;SDS011;7289;50.706;4.992;2023-06-04T11:18:23;0.00;;;0.00;;
14408;SDS011;7289;50.706;4.992;2023-06-04T11:20:58;0.00;;;0.00;;
14408;SDS011;7289;50.706;4.992;2023-06-04T11:23:27;0.00;;;0.00;;
14408;SDS011;7289;50.706;4.992;2023-06-04T11:25:56;0.00;;;0.00;;
14408;SDS011;7289;50.706;4.992;2023-06-04T11:28:25;0.00;;;0.00;;
14408;SDS011;7289;50.706;4.992;2023-06-04T11:30:58;0.00;;;0.00;;
14408;SDS011;7289;50.706;4.992;2023-06-04T11:33:29;0.00;;;0.00;;
14408;SDS011;7289;50.706;4.992;2023-06-04T11:35:57;0.00;;;0.00;;
14408;SDS011;7289;50.706;4.992;2023-06-04T11:38:26;0.00;;;0.00;;
14408;SDS011;7289;50.706;4.992;2023-06-04T11:40:55;0.00;;;0.00;;
14408;SDS011;7289;50.706;4.992;2023-06-04T11:43:25;0.00;;;0.00;;
14408;SDS011;7289;50.706;4.992;2023-06-04T11:45:53;0.00;;;0.00;;
14408;SDS011;7289;50.706;4.992;2023-06-04T11:48:23;0.00;;;0.00;;
14408;SDS011;7289;50.706;4.992;2023-06-04T11:50:52;0.00;;;0.00;;
14408;SDS011;7289;50.706;4.992;2023-06-04T11:53:21;0.00;;;0.00;;
14408;SDS011;7289;50.706;4.992;2023-06-04T11:55:50;0.00;;;0.00;;
14408;SDS011;7289;50.706;4.992;2023-06-04T11:58:18;0.00;;;0.00;;
14408;SDS011;7289;50.706;4.992;2023-06-04T12:00:46;0.00;;;0.00;;
14408;SDS011;7289;50.706;4.992;2023-06-04T12:03:15;0.00;;;0.00;;
14408;SDS011;7289;50.706;4.992;2023-06-04T12:05:44;0.00;;;0.00;;
14408;SDS011;7289;50.706;4.992;2023-06-04T12:08:13;0.00;;;0.00;;
14408;SDS011;7289;50.706;4.992;2023-06-04T12:10:42;0.00;;;0.00;;
14408;SDS011;7289;50.706;4.992;2023-06-04T12:13:10;0.00;;;0.00;;
14408;SDS011;7289;50.706;4.992;2023-06-04T12:15:39;0.00;;;0.00;;
14408;SDS011;7289;50.706;4.992;2023-06-04T12:18:07;0.00;;;0.00;;
14408;SDS011;7289;50.706;4.992;2023-06-04T12:20:37;0.00;;;0.00;;
14408;SDS011;7289;50.706;4.992;2023-06-04T12:23:07;0.00;;;0.00;;
14408;SDS011;7289;50.706;4.992;2023-06-04T12:25:35;0.00;;;0.00;;
14408;SDS011;7289;50.706;4.992;2023-06-04T12:28:07;0.00;;;0.00;;
14408;SDS011;7289;50.706;4.992;2023-06-04T12:30:45;0.00;;;0.00;;
14408;SDS011;7289;50.706;4.992;2023-06-04T12:33:13;0.00;;;0.00;;
14408;SDS011;7289;50.706;4.992;2023-06-04T12:35:41;0.00;;;0.00;;
14408;SDS011;7289;50.706;4.992;2023-06-04T12:38:12;0.00;;;0.00;;
14408;SDS011;7289;50.706;4.992;2023-06-04T12:40:41;0.00;;;0.00;;
14408;SDS011;7289;50.706;4.992;2023-06-04T12:43:09;0.00;;;0.00;;
14408;SDS011;7289;50.706;4.992;2023-06-04T12:45:37;0.00;;;0.00;;
14408;SDS011;7289;50.706;4.992;2023-06-04T12:48:05;0.00;;;0.00;;
14408;SDS011;7289;50.706;4.992;2023-06-04T12:50:34;0.00;;;0.00;;
14408;SDS011;7289;50.706;4.992;2023-06-04T12:53:02;0.00;;;0.00;;
14408;SDS011;7289;50.706;4.992;2023-06-04T12:55:32;0.00;;;0.00;;
14408;SDS011;7289;50.706;4.992;2023-06-04T12:58:00;0.00;;;0.00;;
14408;SDS011;7289;50.706;4.992;2023-06-04T13:00:28;0.00;;;0.00;;
14408;SDS011;7289;50.706;4.992;2023-06-04T13:02:57;0.00;;;0.00;;
14408;SDS011;7289;50.706;4.992;2023-06-04T13:05:25;0.00;;;0.00;;
14408;SDS011;7289;50.706;4.992;2023-06-04T13:07:53;0.00;;;0.00;;
14408;SDS011;7289;50.706;4.992;2023-06-04T13:10:23;0.00;;;0.00;;
14408;SDS011;7289;50.706;4.992;2023-06-04T13:12:52;0.00;;;0.00;;
14408;SDS011;7289;50.706;4.992;2023-06-04T13:15:21;0.00;;;0.00;;
14408;SDS011;7289;50.706;4.992;2023-06-04T13:17:49;0.00;;;0.00;;
14408;SDS011;7289;50.706;4.992;2023-06-04T13:20:17;0.00;;;0.00;;
14408;SDS011;7289;50.706;4.992;2023-06-04T13:22:46;0.00;;;0.00;;
14408;SDS011;7289;50.706;4.992;2023-06-04T13:25:14;0.00;;;0.00;;
14408;SDS011;7289;50.706;4.992;2023-06-04T13:27:44;0.00;;;0.00;;
14408;SDS011;7289;50.706;4.992;2023-06-04T13:30:14;0.00;;;0.00;;
14408;SDS011;7289;50.706;4.992;2023-06-04T13:32:42;0.00;;;0.00;;
14408;SDS011;7289;50.706;4.992;2023-06-04T13:35:11;0.00;;;0.00;;
14408;SDS011;7289;50.706;4.992;2023-06-04T13:37:39;0.00;;;0.00;;
14408;SDS011;7289;50.706;4.992;2023-06-04T13:40:08;0.00;;;0.00;;
14408;SDS011;7289;50.706;4.992;2023-06-04T13:42:37;0.00;;;0.00;;
14408;SDS011;7289;50.706;4.992;2023-06-04T13:45:05;0.00;;;0.00;;
14408;SDS011;7289;50.706;4.992;2023-06-04T13:47:35;0.00;;;0.00;;
14408;SDS011;7289;50.706;4.992;2023-06-04T13:50:04;0.00;;;0.00;;
14408;SDS011;7289;50.706;4.992;2023-06-04T13:52:33;0.00;;;0.00;;
14408;SDS011;7289;50.706;4.992;2023-06-04T13:55:02;0.00;;;0.00;;
14408;SDS011;7289;50.706;4.992;2023-06-04T13:57:30;0.00;;;0.00;;
14408;SDS011;7289;50.706;4.992;2023-06-04T13:59:59;0.00;;;0.00;;
14408;SDS011;7289;50.706;4.992;2023-06-04T14:02:29;0.00;;;0.00;;
14408;SDS011;7289;50.706;4.992;2023-06-04T14:04:59;0.00;;;0.00;;
14408;SDS011;7289;50.706;4.992;2023-06-04T14:07:28;0.00;;;0.00;;
14408;SDS011;7289;50.706;4.992;2023-06-04T14:09:56;0.00;;;0.00;;
14408;SDS011;7289;50.706;4.992;2023-06-04T14:12:24;0.00;;;0.00;;
14408;SDS011;7289;50.706;4.992;2023-06-04T14:14:52;0.00;;;0.00;;
14408;SDS011;7289;50.706;4.992;2023-06-04T14:17:21;0.00;;;0.00;;
14408;SDS011;7289;50.706;4.992;2023-06-04T14:19:49;0.00;;;0.00;;
14408;SDS011;7289;50.706;4.992;2023-06-04T14:22:19;0.00;;;0.00;;
14408;SDS011;7289;50.706;4.992;2023-06-04T14:24:47;0.00;;;0.00;;
14408;SDS011;7289;50.706;4.992;2023-06-04T14:27:15;0.00;;;0.00;;
14408;SDS011;7289;50.706;4.992;2023-06-04T14:29:44;0.00;;;0.00;;
14408;SDS011;7289;50.706;4.992;2023-06-04T14:32:12;0.00;;;0.00;;
14408;SDS011;7289;50.706;4.992;2023-06-04T14:34:40;0.00;;;0.00;;
14408;SDS011;7289;50.706;4.992;2023-06-04T14:37:09;0.00;;;0.00;;
14408;SDS011;7289;50.706;4.992;2023-06-04T14:39:38;0.00;;;0.00;;
14408;SDS011;7289;50.706;4.992;2023-06-04T14:42:07;0.00;;;0.00;;
14408;SDS011;7289;50.706;4.992;2023-06-04T14:44:35;0.00;;;0.00;;
14408;SDS011;7289;50.706;4.992;2023-06-04T14:47:04;0.00;;;0.00;;
14408;SDS011;7289;50.706;4.992;2023-06-04T14:49:32;0.00;;;0.00;;
14408;SDS011;7289;50.706;4.992;2023-06-04T14:52:01;0.00;;;0.00;;
14408;SDS011;7289;50.706;4.992;2023-06-04T14:54:29;0.00;;;0.00;;
14408;SDS011;7289;50.706;4.992;2023-06-04T14:56:59;0.00;;;0.00;;
14408;SDS011;7289;50.706;4.992;2023-06-04T14:59:27;0.00;;;0.00;;
14408;SDS011;7289;50.706;4.992;2023-06-04T15:01:56;0.00;;;0.00;;
14408;SDS011;7289;50.706;4.992;2023-06-04T15:04:24;0.00;;;0.00;;
14408;SDS011;7289;50.706;4.992;2023-06-04T15:06:53;0.00;;;0.00;;
14408;SDS011;7289;50.706;4.992;2023-06-04T15:09:21;0.00;;;0.00;;
14408;SDS011;7289;50.706;4.992;2023-06-04T15:11:49;0.00;;;0.00;;
14408;SDS011;7289;50.706;4.992;2023-06-04T15:14:19;0.00;;;0.00;;
14408;SDS011;7289;50.706;4.992;2023-06-04T15:16:47;0.00;;;0.00;;